Time;durP1;ratioP1;P1;durP2;ratioP2;P2;SDS_P1;SDS_P2;PMS_P1;PMS_P2;Temp;Humidity;BMP_temperature;BMP_pressure;BME280_temperature;BME280_humidity;BME280_pressure;Samples;Min_cycle;Max_cycle;Signal;HPM_P1;HPM_P2
2022/07/27 00:01:21;;;;;;;;;12.00;12.00;;;;;20.08;76.01;99284.25;6311550;20;3529739;-60
2022/07/27 00:03:50;;;;;;;;;17.67;16.00;;;;;20.16;75.82;99296.03;6282550;20;2487780;-61
2022/07/27 00:06:18;;;;;;;;;12.33;12.33;;;;;20.29;75.52;99292.84;6316135;20;3522523;-60
2022/07/27 00:08:47;;;;;;;;;13.00;12.33;;;;;20.18;76.41;99287.72;6284599;20;3527312;-60
2022/07/27 00:11:15;;;;;;;;;13.00;13.00;;;;;19.81;77.41;99285.38;6284916;20;2483612;-61
2022/07/27 00:13:45;;;;;;;;;13.50;13.50;;;;;19.90;77.27;99292.53;6285019;20;2810811;-61
2022/07/27 00:16:13;;;;;;;;;12.50;12.50;;;;;19.74;78.05;99285.16;6279227;20;2487767;-60
2022/07/27 00:18:42;;;;;;;;;15.33;13.00;;;;;19.77;78.65;99289.41;6284492;20;3523334;-58
2022/07/27 00:21:11;;;;;;;;;16.33;14.33;;;;;19.72;78.58;99287.19;6281865;20;3528374;-59
2022/07/27 00:23:40;;;;;;;;;16.00;16.00;;;;;19.58;79.35;99288.59;6283375;20;3550231;-59
2022/07/27 00:26:09;;;;;;;;;19.00;17.00;;;;;19.46;79.55;99284.47;6279955;20;2835667;-57
2022/07/27 00:28:38;;;;;;;;;15.50;15.50;;;;;19.44;79.30;99286.50;6283042;20;2819011;-59
2022/07/27 00:31:06;;;;;;;;;14.50;12.00;;;;;19.58;79.20;99287.75;6280510;20;2494000;-58
2022/07/27 00:33:35;;;;;;;;;15.00;13.00;;;;;19.42;78.96;99288.53;6282061;20;3519142;-60
2022/07/27 00:36:04;;;;;;;;;16.00;13.00;;;;;19.20;80.08;99284.47;6311827;20;2804585;-58
2022/07/27 00:38:32;;;;;;;;;12.50;12.50;;;;;19.17;80.40;99295.66;6288239;20;2804457;-58
2022/07/27 00:41:01;;;;;;;;;14.67;14.00;;;;;19.06;80.58;99289.50;6284274;20;3532530;-59
2022/07/27 00:43:29;;;;;;;;;12.67;12.67;;;;;19.26;79.23;99294.72;6282541;20;3538826;-58
2022/07/27 00:45:58;;;;;;;;;14.67;13.00;;;;;18.92;80.64;99290.03;6280772;20;3534614;-59
2022/07/27 00:48:31;;;;;;;;;13.00;13.00;;;;;18.78;81.62;99293.34;6288172;20;2791907;-58
2022/07/27 00:50:59;;;;;;;;;15.67;13.33;;;;;18.92;81.24;99291.91;6280282;20;3532632;-59
2022/07/27 00:53:28;;;;;;;;;15.33;14.33;;;;;18.83;80.88;99288.28;6281467;20;3533631;-60
2022/07/27 00:55:58;;;;;;;;;13.00;12.33;;;;;18.71;80.94;99286.78;6281222;20;3513851;-59
2022/07/27 00:58:27;;;;;;;;;13.00;12.00;;;;;19.01;79.89;99296.41;6312810;20;2799247;-60
2022/07/27 01:00:55;;;;;;;;;15.00;15.00;;;;;19.00;79.13;99298.25;6280129;20;3521144;-60
2022/07/27 01:03:24;;;;;;;;;12.67;12.67;;;;;19.13;78.41;99305.19;6281095;20;3528416;-60
2022/07/27 01:05:57;;;;;;;;;13.00;12.00;;;;;19.16;78.26;99304.84;6315560;20;2789880;-59
2022/07/27 01:08:27;;;;;;;;;13.50;13.00;;;;;19.25;77.65;99309.34;6281804;20;2491922;-59
2022/07/27 01:10:57;;;;;;;;;14.00;14.00;;;;;18.81;79.55;99306.63;6282328;20;2489824;-60
2022/07/27 01:13:26;;;;;;;;;15.67;14.00;;;;;18.85;79.44;99316.16;6281675;20;3521062;-59
2022/07/27 01:15:55;;;;;;;;;16.67;14.33;;;;;18.68;80.71;99317.84;6279035;20;3547308;-59
2022/07/27 01:18:36;;;;;;;;;13.00;13.00;;;;;18.69;79.81;99325.00;6310350;20;3531564;-60
2022/07/27 01:21:09;;;;;;;;;13.67;12.00;;;;;18.65;79.78;99316.28;6280611;20;3526307;-60
2022/07/27 01:23:37;;;;;;;;;15.00;14.00;;;;;18.48;80.67;99322.56;6310963;20;3518089;-59
2022/07/27 01:26:06;;;;;;;;;15.00;15.00;;;;;18.40;80.91;99319.78;6311029;20;3537745;-59
2022/07/27 01:28:35;;;;;;;;;16.00;15.00;;;;;18.45;80.41;99317.44;6279776;20;3556637;-60
2022/07/27 01:31:03;;;;;;;;;14.00;14.00;;;;;18.72;78.89;99321.09;6279117;20;3533699;-59
2022/07/27 01:33:31;;;;;;;;;15.00;13.00;;;;;18.62;79.22;99319.34;6283173;20;2788777;-58
2022/07/27 01:35:59;;;;;;;;;14.00;13.00;;;;;18.60;78.94;99315.91;6285870;20;2797152;-59
2022/07/27 01:38:28;;;;;;;;;14.67;12.67;;;;;18.50;79.46;99311.56;6283690;20;3527343;-59
2022/07/27 01:40:57;;;;;;;;;16.67;14.67;;;;;18.23;80.29;99317.91;6279998;20;3546066;-58
2022/07/27 01:43:25;;;;;;;;;16.00;15.00;;;;;17.88;82.06;99319.53;6280423;20;3537810;-59
2022/07/27 01:45:54;;;;;;;;;14.50;14.50;;;;;17.28;84.22;99317.13;6280558;20;2801454;-59
2022/07/27 01:48:24;;;;;;;;;14.00;14.00;;;;;17.68;83.57;99330.41;6279486;20;2804446;-58
2022/07/27 01:50:53;;;;;;;;;12.67;12.67;;;;;18.00;81.51;99329.16;6280679;20;3534681;-59
2022/07/27 01:53:23;;;;;;;;;16.00;16.00;;;;;17.92;81.10;99326.34;6283533;20;2827457;-59
2022/07/27 01:55:51;;;;;;;;;16.33;16.00;;;;;17.45;82.70;99313.63;6276949;20;3563765;-58
2022/07/27 01:58:20;;;;;;;;;16.33;14.67;;;;;17.63;82.60;99310.16;6281378;20;3548241;-59
2022/07/27 02:00:49;;;;;;;;;18.00;16.00;;;;;17.64;81.92;99307.31;6279344;20;2483573;-59
2022/07/27 02:03:18;;;;;;;;;15.67;14.00;;;;;17.50;83.57;99313.19;6281692;20;3534625;-58
2022/07/27 02:05:46;;;;;;;;;13.00;13.00;;;;;17.30;83.91;99321.41;6312205;20;3532540;-60
2022/07/27 02:08:14;;;;;;;;;15.50;14.00;;;;;17.53;83.37;99321.03;6313143;20;2487770;-58
2022/07/27 02:13:30;;;;;;;;;17.33;17.00;;;;;17.66;82.33;99316.13;6310653;20;2491941;-58
2022/07/27 02:16:00;;;;;;;;;17.50;15.00;;;;;17.33;83.18;99310.25;6312294;20;2819018;-59
2022/07/27 02:18:29;;;;;;;;;14.00;11.50;;;;;17.12;85.61;99312.31;6282881;20;2802386;-59
2022/07/27 02:21:05;;;;;;;;;14.33;13.33;;;;;17.10;85.35;99319.72;6278934;20;3530472;-59
2022/07/27 02:23:36;;;;;;;;;15.00;15.00;;;;;16.95;85.77;99321.16;6280859;20;3548226;-59
2022/07/27 02:26:07;;;;;;;;;17.67;16.00;;;;;16.88;87.04;99308.19;6279986;20;3557575;-59
2022/07/27 02:28:35;;;;;;;;;16.50;15.00;;;;;17.20;84.89;99315.13;6280913;20;2491946;-59
2022/07/27 02:31:04;;;;;;;;;16.50;16.00;;;;;17.15;84.03;99317.44;6281572;20;2816002;-59
2022/07/27 02:33:32;;;;;;;;;14.00;14.00;;;;;17.11;84.17;99321.41;6280575;20;3529508;-59
2022/07/27 02:36:02;;;;;;;;;12.00;12.00;;;;;17.17;83.12;99323.56;6312019;20;3518018;-59
2022/07/27 02:38:30;;;;;;;;;15.67;14.67;;;;;17.02;83.34;99317.72;6311119;20;2814863;-61
2022/07/27 02:40:59;;;;;;;;;14.67;13.67;;;;;16.87;83.81;99311.88;6312931;20;3518970;-61
2022/07/27 02:43:27;;;;;;;;;17.00;17.00;;;;;16.71;85.15;99329.69;6278128;20;2491963;-61
2022/07/27 02:45:56;;;;;;;;;15.33;15.00;;;;;16.95;84.00;99322.00;6280863;20;3538802;-61
2022/07/27 02:48:24;;;;;;;;;14.00;12.50;;;;;17.10;82.34;99325.16;6281406;20;2798206;-61
2022/07/27 02:50:52;;;;;;;;;16.67;14.00;;;;;17.32;80.39;99319.41;6280815;20;3544027;-61
2022/07/27 02:53:21;;;;;;;;;18.00;17.00;;;;;17.34;79.33;99322.81;6281110;20;2831882;-61
2022/07/27 02:55:49;;;;;;;;;15.00;13.33;;;;;16.94;81.50;99327.59;6313184;20;2798356;-61
2022/07/27 02:58:17;;;;;;;;;14.50;14.50;;;;;17.20;80.09;99315.13;6312120;20;2796084;-61
2022/07/27 03:00:45;;;;;;;;;12.50;12.50;;;;;17.07;80.44;99326.28;6284174;20;2804472;-62
2022/07/27 03:03:14;;;;;;;;;14.33;13.67;;;;;17.36;79.05;99325.38;6280852;20;3529534;-58
2022/07/27 03:05:43;;;;;;;;;14.67;14.33;;;;;17.31;79.09;99328.53;6312883;20;3544214;-59
2022/07/27 03:08:12;;;;;;;;;12.00;12.00;;;;;17.19;78.38;99324.25;6282568;20;3525325;-59
2022/07/27 03:10:41;;;;;;;;;18.00;17.00;;;;;17.34;79.00;99328.22;6284922;20;2824208;-60
2022/07/27 03:13:15;;;;;;;;;16.00;16.00;;;;;17.33;78.52;99331.09;6284447;20;2491963;-61
2022/07/27 03:15:44;;;;;;;;;17.00;15.33;;;;;17.33;78.38;99334.66;6285880;20;3540000;-61
2022/07/27 03:18:12;;;;;;;;;16.33;15.33;;;;;17.34;77.82;99339.09;6286152;20;2812889;-61
2022/07/27 03:20:41;;;;;;;;;13.00;13.00;;;;;17.46;77.42;99334.34;6315136;20;3534681;-61
2022/07/27 03:23:09;;;;;;;;;14.00;12.50;;;;;17.45;77.22;99342.63;6288064;20;2786842;-62
2022/07/27 03:25:38;;;;;;;;;16.33;14.00;;;;;17.49;76.57;99338.63;6285407;20;3539950;-62
2022/07/27 03:28:07;;;;;;;;;13.33;12.33;;;;;17.51;76.66;99345.63;6282128;20;3522285;-58
2022/07/27 03:30:36;;;;;;;;;12.67;12.00;;;;;17.62;75.64;99346.47;6316751;20;3520131;-58
2022/07/27 03:33:04;;;;;;;;;12.67;10.00;;;;;17.66;75.81;99342.44;6313651;20;2783699;-59
2022/07/27 03:35:33;;;;;;;;;14.67;14.00;;;;;17.46;76.45;99352.50;6315963;20;3535663;-59
2022/07/27 03:38:02;;;;;;;;;14.00;12.00;;;;;17.45;76.77;99356.22;6281262;20;3537738;-59
2022/07/27 03:40:32;;;;;;;;;11.50;11.50;;;;;17.58;76.14;99348.59;6288381;20;2786704;-59
2022/07/27 03:43:02;;;;;;;;;10.00;9.60;;;;;17.42;76.56;99346.50;6308957;20;2786759;-59
2022/07/27 03:45:29;;;;;;;;;14.50;12.00;;;;;17.59;75.82;99350.31;6287758;20;2796107;-61
2022/07/27 03:47:58;;;;;;;;;11.67;10.00;;;;;17.74;75.19;99346.09;6285588;20;2785837;-61
2022/07/27 03:50:27;;;;;;;;;16.33;14.67;;;;;17.61;75.61;99345.56;6312363;20;3539844;-61
2022/07/27 03:52:55;;;;;;;;;18.00;16.00;;;;;17.62;75.59;99346.47;6280548;20;2485693;-58
2022/07/27 03:55:24;;;;;;;;;10.33;10.33;;;;;17.71;74.51;99340.97;6282797;20;3520146;-59
2022/07/27 03:57:53;;;;;;;;;14.67;12.00;;;;;17.50;75.27;99343.06;6314362;20;3540178;-59
2022/07/27 04:00:22;;;;;;;;;15.33;14.00;;;;;17.67;74.74;99349.59;6280137;20;3539017;-58
2022/07/27 04:02:51;;;;;;;;;13.33;13.33;;;;;17.64;74.71;99356.16;6283388;20;3528354;-59
2022/07/27 04:05:19;;;;;;;;;11.00;11.00;;;;;17.83;74.00;99351.72;6314666;20;3521079;-59
2022/07/27 04:07:48;;;;;;;;;12.00;10.67;;;;;17.66;74.88;99354.13;6312524;20;3518069;-59
2022/07/27 04:10:23;;;;;;;;;15.00;13.33;;;;;17.78;73.98;99347.53;6314101;20;3525248;-59
2022/07/27 04:12:59;;;;;;;;;12.67;12.67;;;;;17.89;74.47;99359.25;6282134;20;3534613;-59
2022/07/27 04:15:28;;;;;;;;;12.00;12.00;;;;;18.04;72.96;99352.31;6287929;20;2798426;-60
2022/07/27 04:17:56;;;;;;;;;14.33;13.33;;;;;18.14;72.68;99344.97;6284520;20;3519030;-58
2022/07/27 04:20:25;;;;;;;;;13.33;12.33;;;;;18.24;72.92;99346.78;6313653;20;3529517;-59
2022/07/27 04:22:54;;;;;;;;;11.50;11.50;;;;;18.30;71.91;99343.44;6282177;20;2795114;-61
2022/07/27 04:25:22;;;;;;;;;11.50;11.50;;;;;18.43;71.56;99346.63;6287345;20;2794035;-59
2022/07/27 04:27:53;;;;;;;;;13.33;12.33;;;;;18.51;71.83;99333.16;6284233;20;3531479;-59
2022/07/27 04:30:22;;;;;;;;;14.50;13.00;;;;;18.34;71.63;99332.13;6319436;20;2799271;-59
2022/07/27 04:32:51;;;;;;;;;15.33;11.67;;;;;18.57;71.28;99337.97;6282247;20;3523287;-59
2022/07/27 04:35:20;;;;;;;;;11.67;11.67;;;;;18.72;70.82;99346.47;6318714;20;2793479;-59
2022/07/27 04:37:54;;;;;;;;;13.67;13.67;;;;;19.62;67.35;99355.38;6312832;20;3525358;-62
2022/07/27 04:40:32;;;;;;;;;11.00;9.50;;;;;19.26;68.96;99360.06;6317719;20;2780525;-63
2022/07/27 04:43:03;;;;;;;;;15.33;15.33;;;;;19.10;69.29;99359.94;6287679;20;2819002;-61
2022/07/27 04:45:33;;;;;;;;;12.67;12.33;;;;;19.13;69.42;99356.88;6312951;20;3516983;-63
2022/07/27 04:48:08;;;;;;;;;13.67;11.67;;;;;19.27;68.84;99359.03;6311416;20;3512977;-60
2022/07/27 04:50:42;;;;;;;;;12.00;11.00;;;;;19.31;68.59;99368.59;6313943;20;3513854;-59
2022/07/27 04:53:12;;;;;;;;;13.00;12.00;;;;;19.16;69.05;99353.84;6310345;20;2483732;-59
2022/07/27 04:55:45;;;;;;;;;13.00;13.00;;;;;19.28;69.07;99358.03;6283870;20;2798240;-59
2022/07/27 04:58:15;;;;;;;;;14.50;14.50;;;;;19.38;68.03;99361.50;6279877;20;2813811;-59
2022/07/27 05:00:43;;;;;;;;;14.67;14.00;;;;;19.53;68.19;99364.50;6280646;20;3531496;-59
2022/07/27 05:03:12;;;;;;;;;16.33;13.00;;;;;19.58;68.26;99366.75;6282641;20;3547113;-59
2022/07/27 05:05:41;;;;;;;;;16.00;15.33;;;;;19.52;68.73;99377.25;6282263;20;3545039;-59
2022/07/27 05:08:18;;;;;;;;;14.00;14.00;;;;;19.67;69.10;99384.91;6283451;20;3521118;-59
2022/07/27 05:10:46;;;;;;;;;14.50;14.50;;;;;19.85;67.72;99380.25;6277830;20;2492419;-59
2022/07/27 05:13:15;;;;;;;;;12.00;12.00;;;;;20.13;66.99;99390.94;6282310;20;3530813;-58
2022/07/27 05:15:44;;;;;;;;;14.00;11.00;;;;;20.24;67.10;99404.25;6278055;20;3528391;-59
2022/07/27 05:18:24;;;;;;;;;12.33;12.33;;;;;20.43;65.10;99394.97;6281503;20;3529399;-59
2022/07/27 05:20:53;;;;;;;;;13.67;13.67;;;;;20.52;64.89;99390.41;6280154;20;3531645;-59
2022/07/27 05:23:21;;;;;;;;;13.00;13.00;;;;;20.75;65.09;99390.69;6320517;20;2789851;-59
2022/07/27 05:25:50;;;;;;;;;59.67;49.33;;;;;20.94;64.63;99389.53;6282240;20;3602514;-58
2022/07/27 05:28:18;;;;;;;;;12.00;12.00;;;;;21.13;63.78;99400.09;6317179;20;2795145;-59
2022/07/27 05:30:47;;;;;;;;;12.00;12.00;;;;;21.23;63.26;99406.25;6280470;20;3520166;-61
2022/07/27 05:33:16;;;;;;;;;10.33;10.33;;;;;21.20;63.29;99408.50;6310830;20;3529433;-61
2022/07/27 05:35:44;;;;;;;;;11.00;11.00;;;;;21.68;61.64;99407.63;6279975;20;2795068;-60
2022/07/27 05:38:13;;;;;;;;;12.33;12.33;;;;;21.76;61.46;99411.41;6310968;20;3532523;-58
2022/07/27 05:40:45;;;;;;;;;10.00;10.00;;;;;21.95;61.53;99404.69;6283870;20;2788993;-61
2022/07/27 05:43:14;;;;;;;;;9.33;9.33;;;;;22.33;59.69;99414.00;6310964;20;2773190;-61
2022/07/27 05:45:42;;;;;;;;;12.00;10.67;;;;;22.42;60.08;99415.66;6310375;20;3514910;-61
2022/07/27 05:48:12;;;;;;;;;12.00;10.60;;;;;22.30;59.37;99419.81;6339166;20;2786788;-62
2022/07/27 05:50:40;;;;;;;;;10.67;10.00;;;;;22.69;58.79;99422.53;6287862;20;2788799;-61
2022/07/27 05:53:09;;;;;;;;;10.67;8.67;;;;;22.83;58.08;99420.06;6311880;20;3487798;-62
2022/07/27 05:55:37;;;;;;;;;9.33;8.67;;;;;22.93;56.56;99420.69;6312063;20;2767985;-61
2022/07/27 05:58:28;;;;;;;;;10.00;9.00;;;;;22.97;55.60;99428.41;6318810;20;2771090;-61
2022/07/27 06:00:57;;;;;;;;;10.00;10.00;;;;;23.22;55.65;99436.47;6308638;20;2786820;-62
2022/07/27 06:03:26;;;;;;;;;7.00;7.00;;;;;23.32;54.44;99437.06;6312682;20;2748344;-61
2022/07/27 06:07:57;;;;;;;;;6.67;6.67;;;;;23.32;54.25;99439.81;6314431;20;2739829;-61
2022/07/27 06:08:43;;;;;;;;;9.00;9.00;;;;;23.41;53.69;99440.63;6316814;20;2735775;-61
2022/07/27 06:11:13;;;;;;;;;9.00;8.00;;;;;23.36;53.16;99443.91;6339444;20;2698190;-61
2022/07/27 06:13:43;;;;;;;;;13.00;10.00;;;;;23.48;53.07;99451.69;6336440;20;2792969;-62
2022/07/27 06:16:12;;;;;;;;;9.00;9.00;;;;;23.49;53.42;99440.56;6320872;20;2736738;-61
2022/07/27 06:18:40;;;;;;;;;8.67;8.67;;;;;23.67;53.86;99451.16;6312210;20;2738803;-62
2022/07/27 06:21:09;;;;;;;;;9.67;9.67;;;;;23.95;53.25;99447.88;6309830;20;2775374;-62
2022/07/27 06:23:37;;;;;;;;;8.00;8.00;;;;;24.09;52.91;99444.28;6320757;20;2625404;-62
2022/07/27 06:26:06;;;;;;;;;11.00;9.00;;;;;24.18;52.44;99458.78;6309432;20;3496622;-62
2022/07/27 06:28:35;;;;;;;;;9.33;9.33;;;;;24.45;52.81;99460.03;6311927;20;2766972;-62
2022/07/27 06:31:05;;;;;;;;;11.00;10.20;;;;;24.36;54.21;99455.69;6335055;20;2791925;-61
2022/07/27 06:33:34;;;;;;;;;8.67;7.67;;;;;24.64;53.67;99458.59;6284863;20;2751350;-58
2022/07/27 06:36:04;;;;;;;;;8.00;8.00;;;;;24.79;52.89;99458.59;6321835;20;2752397;-58
2022/07/27 06:38:33;;;;;;;;;10.00;10.00;;;;;24.84;53.40;99461.63;6312179;20;3514145;-58
2022/07/27 06:41:02;;;;;;;;;9.00;9.00;;;;;25.34;51.66;99459.91;6314746;20;2735694;-58
2022/07/27 06:43:32;;;;;;;;;6.00;6.00;;;;;25.38;51.80;99469.44;6319956;20;2734658;-60
2022/07/27 06:46:02;;;;;;;;;8.00;8.00;;;;;25.77;49.90;99466.22;6336707;20;2746106;-59
2022/07/27 06:48:33;;;;;;;;;7.25;6.25;;;;;25.69;50.74;99463.59;6307466;20;2662826;-56
2022/07/27 06:51:01;;;;;;;;;8.33;8.00;;;;;26.07;49.91;99468.84;6314618;20;2749235;-55
2022/07/27 06:53:31;;;;;;;;;6.40;6.20;;;;;26.24;49.09;99463.88;6337925;20;2742987;-59
2022/07/27 06:56:04;;;;;;;;;9.67;9.00;;;;;26.66;48.35;99467.53;6279947;20;3475332;-54
2022/07/27 06:58:36;;;;;;;;;8.00;8.00;;;;;26.46;47.77;99467.38;6322456;20;2750308;-56
2022/07/27 07:01:04;;;;;;;;;12.33;10.00;;;;;27.38;47.53;99470.78;6310046;20;2789867;-56
2022/07/27 07:03:33;;;;;;;;;8.67;8.67;;;;;27.53;46.78;99474.22;6315096;20;2746127;-54
2022/07/27 07:06:02;;;;;;;;;8.00;8.00;;;;;26.73;47.50;99473.94;6309926;20;2750248;-55
2022/07/27 07:08:30;;;;;;;;;11.33;10.67;;;;;27.69;46.29;99465.53;6310146;20;2792025;-50
2022/07/27 07:10:59;;;;;;;;;7.33;7.00;;;;;27.74;46.32;99471.25;6314248;20;2730618;-58
2022/07/27 07:13:27;;;;;;;;;9.00;8.00;;;;;28.57;45.17;99470.81;6316253;20;2737752;-59
2022/07/27 07:15:56;;;;;;;;;8.67;8.67;;;;;28.43;45.05;99469.97;6316750;20;2752452;-59
2022/07/27 07:18:25;;;;;;;;;11.00;11.00;;;;;28.19;45.93;99470.63;6311884;20;3515944;-59
2022/07/27 07:20:53;;;;;;;;;10.00;9.67;;;;;28.75;44.42;99477.53;6303920;20;3509664;-60
2022/07/27 07:23:22;;;;;;;;;7.33;7.33;;;;;28.57;44.79;99467.19;6279864;20;2750371;-61
2022/07/27 07:25:51;;;;;;;;;8.33;8.33;;;;;28.45;44.41;99472.53;6313491;20;2751352;-61
2022/07/27 07:28:21;;;;;;;;;10.00;10.00;;;;;28.73;44.75;99477.78;6310809;20;2783640;-61
2022/07/27 07:30:49;;;;;;;;;9.67;9.67;;;;;29.34;43.24;99479.22;6312137;20;3497236;-61
2022/07/27 07:33:18;;;;;;;;;10.33;10.33;;;;;29.12;43.85;99483.38;6313619;20;3522182;-61
2022/07/27 07:35:46;;;;;;;;;9.33;9.33;;;;;28.99;43.90;99478.72;6309752;20;2753408;-61
2022/07/27 07:38:35;;;;;;;;;8.00;8.00;;;;;29.16;43.43;99476.34;6310636;20;3456527;-63
2022/07/27 07:41:04;;;;;;;;;13.00;12.00;;;;;29.56;43.31;99478.88;6310596;20;3517936;-62
2022/07/27 07:43:35;;;;;;;;;12.00;11.00;;;;;29.83;43.94;99482.31;6276772;20;3512851;-62
2022/07/27 07:46:05;;;;;;;;;10.33;10.33;;;;;29.73;42.07;99474.53;6277580;20;3512797;-63
2022/07/27 07:48:34;;;;;;;;;11.33;10.33;;;;;28.82;43.87;99473.69;6311556;20;2791966;-54
2022/07/27 07:51:02;;;;;;;;;9.00;9.00;;;;;29.75;42.26;99481.53;6312087;20;3476262;-58
2022/07/27 07:53:31;;;;;;;;;11.67;9.00;;;;;28.74;44.31;99478.63;6312409;20;3496228;-52
2022/07/27 07:56:08;;;;;;;;;12.00;10.00;;;;;27.90;45.66;99471.94;6273184;20;3514875;-54
2022/07/27 07:58:37;;;;;;;;;8.00;8.00;;;;;28.48;44.43;99476.78;6315479;20;2746160;-57
2022/07/27 08:01:05;;;;;;;;;9.00;9.00;;;;;28.35;45.28;99469.34;6314847;20;2745071;-53
2022/07/27 08:03:34;;;;;;;;;12.00;10.33;;;;;28.07;45.56;99470.44;6322325;20;2789952;-56
2022/07/27 08:06:03;;;;;;;;;10.33;10.33;;;;;28.48;44.15;99463.81;6314269;20;3515877;-53
2022/07/27 08:08:32;;;;;;;;;14.00;10.00;;;;;28.74;44.57;99467.56;6316133;20;2791989;-59
2022/07/27 08:11:00;;;;;;;;;13.67;11.00;;;;;29.17;43.86;99461.44;6314406;20;2795103;-59
2022/07/27 08:13:29;;;;;;;;;10.33;10.33;;;;;28.94;44.78;99465.59;6322334;20;2787163;-59
2022/07/27 08:15:58;;;;;;;;;9.67;9.67;;;;;28.64;44.94;99468.88;6315336;20;3496056;-59
2022/07/27 08:18:26;;;;;;;;;10.00;8.00;;;;;29.15;42.20;99469.09;6317574;20;2763791;-60
2022/07/27 08:20:55;;;;;;;;;9.67;9.67;;;;;28.91;44.43;99467.91;6315433;20;2785725;-59
2022/07/27 08:23:25;;;;;;;;;11.33;9.33;;;;;29.51;42.66;99474.84;6313183;20;2782750;-59
2022/07/27 08:25:54;;;;;;;;;9.33;9.33;;;;;28.72;44.73;99467.78;6314578;20;2786209;-58
2022/07/27 08:28:22;;;;;;;;;10.67;10.33;;;;;28.96;43.01;99471.72;6311810;20;3512776;-59
2022/07/27 08:30:51;;;;;;;;;10.00;10.00;;;;;28.91;43.49;99466.00;6320829;20;2775476;-62
2022/07/27 08:33:20;;;;;;;;;10.67;10.67;;;;;29.15;42.35;99458.03;6313298;20;3515907;-63
2022/07/27 08:35:49;;;;;;;;;11.00;9.00;;;;;29.36;42.11;99460.50;6283936;20;3495064;-62
2022/07/27 08:38:17;;;;;;;;;12.33;11.33;;;;;29.29;42.05;99456.91;6313099;20;3518070;-59
2022/07/27 08:40:48;;;;;;;;;10.00;10.00;;;;;28.40;42.74;99448.28;6316010;20;2796215;-59
2022/07/27 08:43:18;;;;;;;;;9.33;9.33;;;;;28.63;42.40;99449.75;6311499;20;3490923;-59
2022/07/27 08:45:59;;;;;;;;;9.00;9.00;;;;;29.48;40.81;99447.63;6312952;20;3476319;-58
2022/07/27 08:48:30;;;;;;;;;2.80;2.80;;;;;29.25;41.95;99451.00;6342244;20;2753535;-61
2022/07/27 08:50:59;;;;;;;;;9.67;9.67;;;;;29.67;40.99;99448.59;6286469;20;2771202;-62
2022/07/27 08:53:31;;;;;;;;;12.67;10.33;;;;;29.59;40.48;99453.53;6311562;20;3512732;-61
2022/07/27 08:56:20;;;;;;;;;9.33;9.33;;;;;29.77;39.15;99450.00;6280527;20;3485736;-62
2022/07/27 08:58:49;;;;;;;;;8.00;8.00;;;;;29.16;40.04;99443.16;6313324;20;2734696;-61
2022/07/27 09:01:18;;;;;;;;;8.67;8.67;;;;;29.07;41.15;99435.13;6314658;20;2746185;-61
2022/07/27 09:03:47;;;;;;;;;9.00;9.00;;;;;29.44;40.23;99440.88;6312979;20;2752396;-54
2022/07/27 09:06:50;;;;;;;;;10.00;10.00;;;;;30.14;38.64;99443.50;6313604;20;3516250;-54
2022/07/27 09:09:22;;;;;;;;;9.67;9.67;;;;;30.03;38.28;99440.63;6312325;20;2779588;-55
2022/07/27 09:12:08;;;;;;;;;6.67;6.67;;;;;30.69;38.33;99437.16;6313743;20;2745086;-56
2022/07/27 09:14:39;;;;;;;;;9.00;8.67;;;;;30.41;38.58;99440.47;6318511;20;2750285;-54
2022/07/27 09:17:26;;;;;;;;;8.00;8.00;;;;;30.26;38.17;99435.31;6320499;20;2752551;-59
2022/07/27 09:20:19;;;;;;;;;10.00;10.00;;;;;30.44;38.13;99433.63;6322424;20;2787881;-59
2022/07/27 09:22:54;;;;;;;;;7.00;7.00;;;;;30.89;37.15;99438.91;6321260;20;2748308;-55
2022/07/27 09:25:32;;;;;;;;;6.00;6.00;;;;;31.24;36.18;99448.22;6313712;20;2740114;-56
2022/07/27 09:28:31;;;;;;;;;9.00;9.00;;;;;30.60;36.16;99444.13;6313613;20;2741982;-58
2022/07/27 09:31:15;;;;;;;;;9.00;8.00;;;;;30.94;36.26;99444.56;6315621;20;2751328;-58
2022/07/27 09:33:49;;;;;;;;;3.67;1.33;;;;;31.51;35.37;99436.75;6324081;20;2746108;-55
2022/07/27 09:36:22;;;;;;;;;10.00;9.67;;;;;31.25;34.76;99436.03;6312482;20;2775389;-59
2022/07/27 09:39:01;;;;;;;;;6.67;6.67;;;;;31.49;35.17;99438.91;6317231;20;2743013;-55
2022/07/27 09:41:44;;;;;;;;;8.33;6.33;;;;;31.64;33.92;99439.31;6325669;20;2737969;-59
2022/07/27 09:44:15;;;;;;;;;7.33;7.33;;;;;32.01;32.88;99429.97;6322121;20;2745137;-51
2022/07/27 09:47:25;;;;;;;;;7.67;7.33;;;;;31.77;33.28;99437.41;6314165;20;2749300;-59
2022/07/27 09:50:26;;;;;;;;;8.00;8.00;;;;;32.29;32.63;99432.03;6316547;20;2747125;-59
2022/07/27 09:53:22;;;;;;;;;8.33;6.33;;;;;31.89;32.51;99432.72;6315107;20;2753443;-60
2022/07/27 09:56:15;;;;;;;;;7.00;7.00;;;;;31.76;32.95;99432.94;6313875;20;2749374;-59
2022/07/27 09:58:50;;;;;;;;;6.00;6.00;;;;;31.56;33.16;99430.47;6311745;20;2730465;-59
2022/07/27 10:01:29;;;;;;;;;7.00;7.00;;;;;31.51;33.29;99435.91;6318461;20;2733650;-59
2022/07/27 10:06:43;;;;;;;;;5.00;4.50;;;;;32.02;31.98;99438.06;6313916;20;2746178;-62
2022/07/27 10:09:30;;;;;;;;;6.00;6.00;;;;;32.16;31.57;99437.84;6315510;20;2732650;-63
2022/07/27 10:12:00;;;;;;;;;5.00;5.00;;;;;31.50;30.76;99426.72;6315594;20;2743989;-63
2022/07/27 10:14:29;;;;;;;;;6.00;6.00;;;;;32.73;30.67;99429.66;6324677;20;2739844;-64
2022/07/27 10:16:58;;;;;;;;;6.33;5.67;;;;;31.98;30.89;99434.06;6312056;20;2727504;-64
2022/07/27 10:19:49;;;;;;;;;4.33;4.33;;;;;32.62;30.15;99430.56;6315163;20;2728409;-63
2022/07/27 10:22:58;;;;;;;;;7.00;7.00;;;;;31.59;30.29;99421.69;6314137;20;2744071;-64
2022/07/27 10:25:29;;;;;;;;;7.00;6.00;;;;;31.61;30.89;99425.91;6321372;20;2738883;-63
2022/07/27 10:28:16;;;;;;;;;7.33;7.33;;;;;32.16;29.91;99427.56;6321139;20;2742958;-62
2022/07/27 10:30:45;;;;;;;;;7.00;7.00;;;;;32.47;29.37;99425.50;6315417;20;2754535;-64
2022/07/27 10:33:45;;;;;;;;;5.67;5.67;;;;;32.42;29.64;99429.00;6312594;20;2737769;-65
2022/07/27 10:36:50;;;;;;;;;6.67;6.00;;;;;32.97;28.32;99433.25;6313719;20;2742991;-63
2022/07/27 10:39:33;;;;;;;;;5.33;5.33;;;;;32.65;29.01;99432.84;6315510;20;2726664;-63
2022/07/27 10:42:37;;;;;;;;;7.33;6.33;;;;;32.97;28.38;99425.75;6320348;20;2744027;-61
2022/07/27 10:45:16;;;;;;;;;6.00;6.00;;;;;31.45;29.84;99413.56;6317461;20;2737873;-63
2022/07/27 10:47:51;;;;;;;;;7.33;6.00;;;;;31.90;29.32;99420.50;6308577;20;2738172;-62
2022/07/27 10:50:28;;;;;;;;;5.67;5.67;;;;;32.50;28.83;99420.31;6312764;20;2739841;-62
2022/07/27 10:53:04;;;;;;;;;7.00;5.67;;;;;32.16;29.60;99418.38;6312019;20;2745174;-63
2022/07/27 10:55:34;;;;;;;;;4.67;4.67;;;;;32.12;28.75;99418.88;6314276;20;2743007;-62
2022/07/27 10:58:09;;;;;;;;;4.60;4.60;;;;;31.81;29.30;99410.84;6338629;20;2733607;-63
2022/07/27 11:00:49;;;;;;;;;7.00;5.33;;;;;32.27;29.81;99414.75;6284094;20;2734711;-65
2022/07/27 11:03:38;;;;;;;;;8.00;7.00;;;;;32.86;28.77;99409.94;6320822;20;2748677;-56
2022/07/27 11:06:24;;;;;;;;;6.00;6.00;;;;;32.00;29.48;99404.13;6313170;20;2744599;-62
2022/07/27 11:09:05;;;;;;;;;6.00;6.00;;;;;32.05;28.85;99395.09;6337263;20;2734783;-62
2022/07/27 11:11:55;;;;;;;;;5.33;5.33;;;;;32.21;29.13;99401.84;6285304;20;2734730;-62
2022/07/27 11:14:29;;;;;;;;;3.00;3.00;;;;;31.99;29.49;99402.41;6311461;20;2746082;-62
2022/07/27 11:17:00;;;;;;;;;5.00;5.00;;;;;32.26;28.27;99399.19;6310911;20;2737762;-57
2022/07/27 11:20:00;;;;;;;;;6.33;6.33;;;;;32.35;28.96;99390.19;6314140;20;2738795;-61
2022/07/27 11:22:38;;;;;;;;;6.33;5.33;;;;;32.22;28.60;99392.41;6309596;20;2740931;-62
2022/07/27 11:25:27;;;;;;;;;4.67;4.00;;;;;32.30;29.30;99400.34;6313477;20;2737781;-53
2022/07/27 11:27:55;;;;;;;;;6.00;6.00;;;;;32.16;28.32;99397.00;6315944;20;2738936;-55
2022/07/27 11:30:27;;;;;;;;;3.00;3.00;;;;;32.03;27.52;99392.53;6317740;20;2739241;-54
2022/07/27 11:33:02;;;;;;;;;5.67;4.00;;;;;31.62;25.83;99397.06;6318681;20;2735793;-59
2022/07/27 11:35:32;;;;;;;;;3.80;3.20;;;;;31.76;26.37;99392.13;6342285;20;2727385;-64